Time;durP1;ratioP1;P1;durP2;ratioP2;P2;SDS_P1;SDS_P2;PMS_P1;PMS_P2;Temp;Humidity;BMP_temperature;BMP_pressure;BME280_temperature;BME280_humidity;BME280_pressure;Samples;Min_cycle;Max_cycle;Signal;HPM_P1;HPM_P2
2024/01/17 00:01:55;;;;;;;9.15;4.05;;;0.90;99.90;;;;;;5038110;28;20543;-69
2024/01/17 00:04:22;;;;;;;7.03;4.18;;;1.10;99.90;;;;;;5051878;28;20053;-68
2024/01/17 00:06:47;;;;;;;8.75;3.72;;;0.80;99.90;;;;;;5050088;28;20052;-69
2024/01/17 00:09:15;;;;;;;12.35;3.85;;;0.80;99.90;;;;;;5051586;28;20041;-68
2024/01/17 00:11:42;;;;;;;6.40;3.33;;;1.10;99.90;;;;;;5068837;28;20044;-69
2024/01/17 00:14:08;;;;;;;8.77;3.85;;;0.90;99.90;;;;;;5052595;28;20112;-69
2024/01/17 00:16:34;;;;;;;6.90;3.30;;;1.40;99.90;;;;;;5050055;28;20037;-69
2024/01/17 00:19:00;;;;;;;7.93;3.00;;;0.80;99.90;;;;;;5050993;28;20044;-70
2024/01/17 00:21:25;;;;;;;10.63;3.95;;;0.80;99.90;;;;;;5051246;28;20524;-69
2024/01/17 00:23:51;;;;;;;7.55;3.70;;;0.80;99.90;;;;;;5053381;28;20099;-69
2024/01/17 00:26:17;;;;;;;9.30;4.00;;;0.90;99.90;;;;;;5043932;28;20471;-69
2024/01/17 00:28:42;;;;;;;9.18;3.75;;;0.70;99.90;;;;;;5050006;28;20056;-69
2024/01/17 00:31:08;;;;;;;6.72;3.92;;;0.70;99.90;;;;;;5067714;28;20047;-69
2024/01/17 00:33:34;;;;;;;8.77;3.95;;;0.60;99.90;;;;;;5051226;28;20092;-71
2024/01/17 00:36:00;;;;;;;6.93;4.10;;;1.40;99.90;;;;;;5048207;28;20429;-69
2024/01/17 00:38:25;;;;;;;10.15;4.10;;;0.30;99.90;;;;;;5051217;28;20048;-69
2024/01/17 00:40:51;;;;;;;8.48;3.95;;;0.60;99.90;;;;;;5051145;28;20076;-69
2024/01/17 00:43:17;;;;;;;10.57;4.70;;;0.60;99.90;;;;;;5050782;28;20145;-69
2024/01/17 00:45:44;;;;;;;7.78;3.80;;;0.60;99.90;;;;;;5039753;28;20052;-68
2024/01/17 00:48:10;;;;;;;8.98;4.07;;;0.70;99.90;;;;;;5080544;28;20114;-68
2024/01/17 00:50:39;;;;;;;9.40;4.60;;;0.60;99.90;;;;;;5050627;28;20120;-69
2024/01/17 00:53:05;;;;;;;7.13;4.13;;;0.60;99.90;;;;;;5051893;28;20047;-69
2024/01/17 00:55:31;;;;;;;7.40;4.10;;;0.60;99.90;;;;;;5083927;28;20112;-69
2024/01/17 00:57:57;;;;;;;8.35;4.05;;;0.70;99.90;;;;;;5049484;28;20048;-69
2024/01/17 01:00:23;;;;;;;8.18;4.40;;;0.60;99.90;;;;;;5050416;28;20048;-69
2024/01/17 01:02:50;;;;;;;8.20;4.32;;;1.00;99.90;;;;;;5051062;28;20184;-68
2024/01/17 01:05:16;;;;;;;8.73;4.65;;;0.60;99.90;;;;;;5051675;28;20116;-68
2024/01/17 01:07:42;;;;;;;9.30;4.07;;;0.60;99.90;;;;;;5049588;28;20183;-69
2024/01/17 01:10:08;;;;;;;8.55;4.15;;;0.60;99.90;;;;;;5049979;28;20044;-68
2024/01/17 01:12:34;;;;;;;7.80;4.32;;;0.60;99.90;;;;;;5051256;28;20072;-69
2024/01/17 01:14:59;;;;;;;8.95;4.70;;;0.70;99.90;;;;;;5061299;28;20123;-68
2024/01/17 01:17:25;;;;;;;9.45;4.53;;;0.60;99.90;;;;;;5066648;28;20044;-68
2024/01/17 01:19:50;;;;;;;11.57;4.20;;;0.70;99.90;;;;;;5065825;28;20044;-69
2024/01/17 01:22:16;;;;;;;7.93;4.20;;;0.70;99.90;;;;;;5051582;28;20049;-69
2024/01/17 01:24:42;;;;;;;8.93;4.53;;;1.00;99.90;;;;;;5033097;28;20044;-73
2024/01/17 01:27:07;;;;;;;7.72;4.20;;;0.70;99.90;;;;;;5091395;28;20045;-68
2024/01/17 01:29:33;;;;;;;6.45;4.32;;;0.70;99.90;;;;;;5049656;28;20502;-68
2024/01/17 01:31:59;;;;;;;8.98;4.55;;;0.70;99.90;;;;;;5066252;28;20045;-68
2024/01/17 01:34:25;;;;;;;10.60;4.95;;;0.70;99.90;;;;;;5051236;28;20049;-69
2024/01/17 01:36:50;;;;;;;9.70;4.80;;;1.00;99.90;;;;;;5035814;28;20057;-69
2024/01/17 01:39:16;;;;;;;9.95;4.93;;;0.80;99.90;;;;;;5063652;28;20114;-69
2024/01/17 01:41:42;;;;;;;10.05;5.10;;;0.70;99.90;;;;;;5050121;28;20055;-71
2024/01/17 01:44:07;;;;;;;9.52;4.85;;;0.70;99.90;;;;;;5053809;28;20079;-68
2024/01/17 01:46:34;;;;;;;10.63;5.25;;;0.70;99.90;;;;;;5047163;28;20224;-68
2024/01/17 01:49:00;;;;;;;10.98;5.50;;;0.70;99.90;;;;;;5044697;28;20072;-69
2024/01/17 01:51:26;;;;;;;9.48;5.78;;;1.20;99.90;;;;;;5050763;28;20048;-68
2024/01/17 01:53:56;;;;;;;9.50;4.90;;;1.10;99.90;;;;;;5050775;28;20052;-68
2024/01/17 01:56:26;;;;;;;9.23;5.70;;;0.70;99.90;;;;;;5049991;28;20041;-68
2024/01/17 01:58:53;;;;;;;12.13;6.25;;;0.70;99.90;;;;;;5049894;28;20041;-68
2024/01/17 02:01:20;;;;;;;9.48;5.80;;;0.70;99.90;;;;;;5050694;28;20064;-68
2024/01/17 02:03:47;;;;;;;9.50;5.32;;;0.70;99.90;;;;;;5049747;28;20033;-74
2024/01/17 02:06:14;;;;;;;10.75;6.25;;;0.80;99.90;;;;;;5050609;28;20049;-69
2024/01/17 02:08:40;;;;;;;11.07;6.63;;;0.70;99.90;;;;;;5051189;28;20095;-68
2024/01/17 02:11:07;;;;;;;11.95;6.00;;;0.60;99.90;;;;;;5082816;28;20033;-68
2024/01/17 02:13:33;;;;;;;9.98;5.13;;;1.00;99.90;;;;;;5049334;28;20478;-68
2024/01/17 02:16:00;;;;;;;10.05;6.10;;;0.70;99.90;;;;;;5050434;28;20040;-68
2024/01/17 02:18:26;;;;;;;11.27;6.88;;;1.00;99.90;;;;;;5063423;28;20048;-67
2024/01/17 02:20:51;;;;;;;12.88;6.07;;;0.60;99.90;;;;;;5082999;28;20497;-68
2024/01/17 02:23:25;;;;;;;10.35;7.18;;;0.60;99.90;;;;;;5049143;28;20155;-68
2024/01/17 02:25:51;;;;;;;14.57;7.05;;;0.60;99.90;;;;;;5050765;28;20110;-73
2024/01/17 02:28:17;;;;;;;9.75;6.07;;;0.60;99.90;;;;;;5076751;28;20055;-69
2024/01/17 02:30:44;;;;;;;9.57;6.40;;;0.60;99.90;;;;;;5034863;28;20041;-68
2024/01/17 02:33:10;;;;;;;12.45;7.38;;;0.60;99.90;;;;;;5036985;28;20645;-68
2024/01/17 02:35:37;;;;;;;13.68;7.45;;;0.60;99.90;;;;;;5054214;28;20124;-68
2024/01/17 02:38:03;;;;;;;11.32;7.20;;;0.60;99.90;;;;;;5038274;28;20128;-68
2024/01/17 02:40:29;;;;;;;10.25;7.00;;;0.60;99.90;;;;;;5055441;28;20036;-68
2024/01/17 02:42:55;;;;;;;15.75;7.70;;;0.60;99.90;;;;;;5052610;28;20120;-69
2024/01/17 02:45:21;;;;;;;13.00;7.78;;;0.60;99.90;;;;;;5048460;28;20044;-68
2024/01/17 02:47:47;;;;;;;12.40;7.60;;;0.50;99.90;;;;;;5044723;28;20129;-68
2024/01/17 02:50:14;;;;;;;11.75;6.70;;;1.10;99.90;;;;;;5069065;28;20037;-68
2024/01/17 02:52:47;;;;;;;12.95;7.63;;;0.60;99.90;;;;;;5054809;28;20037;-68
2024/01/17 02:55:15;;;;;;;12.88;7.72;;;0.60;99.90;;;;;;5051091;28;20060;-68
2024/01/17 02:57:41;;;;;;;10.30;7.50;;;1.00;99.90;;;;;;5054147;28;20358;-68
2024/01/17 03:00:08;;;;;;;12.73;7.45;;;0.50;99.90;;;;;;5053510;28;20093;-68
2024/01/17 03:02:35;;;;;;;12.88;8.30;;;0.50;99.90;;;;;;5046801;28;20046;-68
2024/01/17 03:05:01;;;;;;;12.00;7.22;;;0.60;99.90;;;;;;5082229;28;20053;-68
2024/01/17 03:07:26;;;;;;;11.77;7.57;;;0.70;99.90;;;;;;5052758;28;20143;-68
2024/01/17 03:09:52;;;;;;;12.90;7.25;;;0.50;99.90;;;;;;5054083;28;20119;-68
2024/01/17 03:12:20;;;;;;;14.23;7.93;;;0.50;99.90;;;;;;5052127;28;21309;-71
2024/01/17 03:14:46;;;;;;;13.13;7.90;;;0.40;99.90;;;;;;5053189;28;20498;-68
2024/01/17 03:17:14;;;;;;;13.95;8.00;;;0.40;99.90;;;;;;5053562;28;20044;-68
2024/01/17 03:19:42;;;;;;;12.35;7.95;;;0.40;99.90;;;;;;5045283;28;20072;-69
2024/01/17 03:22:08;;;;;;;12.82;7.78;;;0.60;99.90;;;;;;5047289;28;20052;-68
2024/01/17 03:24:36;;;;;;;13.02;8.30;;;0.40;99.90;;;;;;5044561;28;20037;-68
2024/01/17 03:27:02;;;;;;;11.15;7.82;;;1.10;99.90;;;;;;5051625;28;20049;-68
2024/01/17 03:29:28;;;;;;;11.18;6.75;;;0.40;99.90;;;;;;5051645;28;20091;-69
2024/01/17 03:31:54;;;;;;;14.50;8.60;;;0.70;99.90;;;;;;5070388;28;20057;-69
2024/01/17 03:34:20;;;;;;;14.20;8.40;;;0.30;99.90;;;;;;5050773;28;20124;-69
2024/01/17 03:36:46;;;;;;;12.55;7.75;;;0.30;99.90;;;;;;5052611;28;20044;-69
2024/01/17 03:39:12;;;;;;;13.38;8.18;;;0.50;99.90;;;;;;5052259;28;20530;-69
2024/01/17 03:41:38;;;;;;;14.77;8.43;;;0.40;99.90;;;;;;5085156;28;20047;-69
2024/01/17 03:44:03;;;;;;;14.38;8.02;;;0.40;99.90;;;;;;5055563;28;20041;-71
2024/01/17 03:46:29;;;;;;;14.07;8.60;;;0.40;99.90;;;;;;5051369;28;20517;-69
2024/01/17 03:48:55;;;;;;;12.10;8.45;;;0.40;99.90;;;;;;5052905;28;20063;-69
2024/01/17 03:51:20;;;;;;;13.68;8.38;;;0.40;99.90;;;;;;5051266;28;20048;-69
2024/01/17 03:53:46;;;;;;;11.15;8.57;;;0.50;99.90;;;;;;5053302;28;20045;-69
2024/01/17 03:56:13;;;;;;;13.70;8.43;;;0.40;99.90;;;;;;5051152;28;20045;-69
2024/01/17 03:58:39;;;;;;;14.18;8.60;;;0.30;99.90;;;;;;5038987;28;20952;-68
2024/01/17 04:01:05;;;;;;;13.80;8.57;;;1.10;99.90;;;;;;5068907;28;20473;-75
2024/01/17 04:03:31;;;;;;;14.15;9.40;;;0.30;99.90;;;;;;5032758;28;20112;-69
2024/01/17 04:05:57;;;;;;;14.15;9.15;;;0.30;99.90;;;;;;5034056;28;20057;-69
2024/01/17 04:08:23;;;;;;;15.45;9.30;;;0.30;99.90;;;;;;5045031;28;20497;-69
2024/01/17 04:10:48;;;;;;;14.65;9.25;;;0.30;99.90;;;;;;5032663;28;20037;-68
2024/01/17 04:13:14;;;;;;;13.48;8.65;;;0.30;99.90;;;;;;5064238;28;20135;-68
2024/01/17 04:15:42;;;;;;;13.88;8.50;;;0.20;99.90;;;;;;5038120;28;20072;-68
2024/01/17 04:18:08;;;;;;;15.27;9.80;;;1.00;99.90;;;;;;5051871;28;20056;-75
2024/01/17 04:20:33;;;;;;;13.88;9.57;;;0.20;99.90;;;;;;5057067;28;20036;-73
2024/01/17 04:22:59;;;;;;;16.15;9.60;;;0.20;99.90;;;;;;5051306;28;20048;-68
2024/01/17 04:25:25;;;;;;;16.65;10.60;;;0.30;99.90;;;;;;5051510;28;20036;-68
2024/01/17 04:27:50;;;;;;;13.93;10.48;;;0.20;99.90;;;;;;5051187;28;20037;-69
2024/01/17 04:30:16;;;;;;;16.60;9.00;;;0.10;99.90;;;;;;5051451;28;20392;-68
2024/01/17 04:32:42;;;;;;;17.77;10.50;;;0.10;99.90;;;;;;5052032;28;20048;-68
2024/01/17 04:35:08;;;;;;;18.00;9.48;;;0.10;99.90;;;;;;5052284;28;20144;-68
2024/01/17 04:37:35;;;;;;;13.55;9.20;;;0.10;99.90;;;;;;5036867;28;20506;-68
2024/01/17 04:40:00;;;;;;;15.95;9.80;;;0.10;99.90;;;;;;5040089;28;20040;-68
2024/01/17 04:42:26;;;;;;;14.25;9.70;;;0.10;99.90;;;;;;5051103;28;20090;-69
2024/01/17 04:44:52;;;;;;;16.08;10.65;;;0.80;99.90;;;;;;5054237;28;20068;-68
2024/01/17 04:47:18;;;;;;;16.67;10.20;;;0.20;99.90;;;;;;5053152;28;20053;-69
2024/01/17 04:49:46;;;;;;;15.57;9.40;;;0.30;99.90;;;;;;5051397;28;20037;-69
2024/01/17 04:52:16;;;;;;;17.88;11.18;;;0.00;99.90;;;;;;5050078;28;20394;-75
2024/01/17 04:54:41;;;;;;;16.17;10.77;;;0.00;99.90;;;;;;5083826;28;20036;-70
2024/01/17 04:57:07;;;;;;;13.40;9.68;;;0.30;99.90;;;;;;5086145;28;20202;-69
2024/01/17 04:59:33;;;;;;;13.32;10.18;;;0.10;99.90;;;;;;5058442;28;20045;-68
2024/01/17 05:01:59;;;;;;;16.20;10.15;;;0.00;99.90;;;;;;5051233;28;20033;-68
2024/01/17 05:04:25;;;;;;;14.35;9.52;;;0.30;99.90;;;;;;5050926;28;20134;-69
2024/01/17 05:06:50;;;;;;;16.10;10.95;;;0.00;99.90;;;;;;5050107;28;20486;-68
2024/01/17 05:09:18;;;;;;;19.52;11.20;;;0.00;99.90;;;;;;5084408;28;20037;-74
2024/01/17 05:11:44;;;;;;;16.92;9.45;;;0.00;99.90;;;;;;5049818;28;20434;-69
2024/01/17 05:14:12;;;;;;;15.55;11.10;;;0.20;99.90;;;;;;5051335;28;20033;-68
2024/01/17 05:16:38;;;;;;;17.27;11.07;;;-0.10;99.90;;;;;;5050668;28;20047;-69
2024/01/17 05:19:04;;;;;;;15.80;10.10;;;-0.10;99.90;;;;;;5051412;28;20036;-68
2024/01/17 05:21:29;;;;;;;17.08;11.25;;;-0.10;99.90;;;;;;5051850;28;20067;-68
2024/01/17 05:23:55;;;;;;;16.65;11.10;;;-0.10;99.90;;;;;;5055299;28;20464;-68
2024/01/17 05:26:21;;;;;;;15.25;10.68;;;-0.20;99.90;;;;;;5050420;28;20462;-72
2024/01/17 05:28:46;;;;;;;15.63;10.52;;;-0.10;99.90;;;;;;5050306;28;20121;-68
2024/01/17 05:31:13;;;;;;;15.45;11.13;;;-0.20;99.90;;;;;;5051335;28;20041;-68
2024/01/17 05:33:38;;;;;;;17.20;10.05;;;0.10;99.90;;;;;;5049990;28;20052;-68
2024/01/17 05:36:04;;;;;;;13.50;10.90;;;0.50;99.90;;;;;;5057654;28;20386;-68
2024/01/17 05:38:30;;;;;;;15.40;10.65;;;-0.20;99.90;;;;;;5053735;28;20115;-68
2024/01/17 05:40:57;;;;;;;15.88;10.52;;;-0.20;99.90;;;;;;5051118;28;20037;-68
2024/01/17 05:43:23;;;;;;;16.25;10.65;;;0.60;99.90;;;;;;5049898;28;20076;-69
2024/01/17 05:45:50;;;;;;;16.33;11.05;;;0.00;99.90;;;;;;5049839;28;20115;-69
2024/01/17 05:48:16;;;;;;;18.75;11.65;;;-0.30;99.90;;;;;;5050963;28;20403;-68
2024/01/17 05:50:42;;;;;;;16.77;11.68;;;-0.30;99.90;;;;;;5050366;28;20087;-68
2024/01/17 05:53:07;;;;;;;19.10;11.23;;;-0.30;99.90;;;;;;5083086;28;20409;-68
2024/01/17 05:55:33;;;;;;;16.20;12.00;;;-0.30;99.90;;;;;;5049183;28;20358;-69
2024/01/17 05:57:59;;;;;;;18.95;11.50;;;0.30;99.90;;;;;;5049275;28;20040;-68
2024/01/17 06:00:24;;;;;;;16.02;11.23;;;-0.30;99.90;;;;;;5054133;28;20068;-69
2024/01/17 06:02:50;;;;;;;14.52;9.73;;;-0.40;99.90;;;;;;5079871;28;20383;-69
2024/01/17 06:05:16;;;;;;;19.40;11.68;;;-0.30;99.90;;;;;;5040184;28;20079;-68
2024/01/17 06:07:42;;;;;;;16.38;11.60;;;-0.40;99.90;;;;;;5048352;28;20060;-68
2024/01/17 06:10:12;;;;;;;16.70;11.23;;;-0.40;99.90;;;;;;5087189;28;20073;-68
2024/01/17 06:12:39;;;;;;;17.00;11.30;;;-0.40;99.90;;;;;;5064098;28;20381;-68
2024/01/17 06:15:06;;;;;;;18.98;11.45;;;-0.50;99.90;;;;;;5054793;28;20134;-68
2024/01/17 06:17:32;;;;;;;16.00;10.75;;;-0.50;99.90;;;;;;5052308;28;20045;-68
2024/01/17 06:19:58;;;;;;;17.65;11.20;;;0.20;99.90;;;;;;5038269;28;20048;-68
2024/01/17 06:22:24;;;;;;;15.43;10.75;;;-0.50;99.90;;;;;;5066690;28;20040;-68
2024/01/17 06:24:50;;;;;;;14.32;10.00;;;-0.50;99.90;;;;;;5041163;28;20044;-68
2024/01/17 06:27:16;;;;;;;14.93;9.65;;;-0.50;99.90;;;;;;5066756;28;20141;-68
2024/01/17 06:29:45;;;;;;;16.23;11.13;;;-0.50;99.90;;;;;;5037178;28;20041;-68
2024/01/17 06:32:12;;;;;;;17.92;10.70;;;-0.50;99.90;;;;;;5048327;28;20091;-68
2024/01/17 06:34:39;;;;;;;15.93;10.57;;;-0.50;99.90;;;;;;5051265;28;20111;-69
2024/01/17 06:37:05;;;;;;;18.15;11.75;;;-0.60;99.90;;;;;;5036413;28;20434;-69
2024/01/17 06:39:32;;;;;;;16.23;11.07;;;-0.30;99.90;;;;;;5052525;28;20051;-69
2024/01/17 06:41:58;;;;;;;16.23;11.90;;;-0.50;99.90;;;;;;5086969;28;20041;-68
2024/01/17 06:44:25;;;;;;;16.35;10.57;;;-0.60;99.90;;;;;;5089042;28;20048;-73
2024/01/17 06:46:50;;;;;;;17.70;10.05;;;-0.60;99.90;;;;;;5052119;28;20486;-70
2024/01/17 06:49:16;;;;;;;16.85;10.23;;;-0.60;99.90;;;;;;5055103;28;20124;-68
2024/01/17 06:51:42;;;;;;;16.30;11.18;;;-0.60;99.90;;;;;;5039457;28;20049;-68
2024/01/17 06:54:09;;;;;;;14.80;10.48;;;-0.60;99.90;;;;;;5053853;28;20044;-68
2024/01/17 06:56:36;;;;;;;11.90;8.98;;;-0.60;99.90;;;;;;5085712;28;20467;-68
2024/01/17 06:59:02;;;;;;;15.32;10.20;;;-0.60;99.90;;;;;;5052161;28;20048;-68
2024/01/17 07:01:28;;;;;;;16.63;10.05;;;-0.60;99.90;;;;;;5053824;28;20382;-68
2024/01/17 07:03:54;;;;;;;14.13;9.98;;;-0.60;99.90;;;;;;5085601;28;20047;-68
2024/01/17 07:06:20;;;;;;;15.20;10.25;;;-0.60;99.90;;;;;;5056042;28;20466;-68
2024/01/17 07:08:46;;;;;;;16.50;10.48;;;-0.60;99.90;;;;;;5051094;28;20048;-68
2024/01/17 07:11:12;;;;;;;13.30;9.38;;;-0.30;99.90;;;;;;5050746;28;20045;-69
2024/01/17 07:13:38;;;;;;;16.42;10.98;;;-0.60;99.90;;;;;;5044074;28;20472;-68
2024/01/17 07:16:05;;;;;;;16.35;10.60;;;-0.60;99.90;;;;;;5068598;28;20444;-68
2024/01/17 07:18:31;;;;;;;13.88;9.63;;;-0.60;99.90;;;;;;5046820;28;20386;-68
2024/01/17 07:20:56;;;;;;;14.55;9.75;;;-0.10;99.90;;;;;;5033272;28;20049;-69
2024/01/17 07:23:22;;;;;;;14.43;9.95;;;-0.60;99.90;;;;;;5039760;28;20037;-70
2024/01/17 07:25:48;;;;;;;15.90;10.02;;;-0.60;99.90;;;;;;5065249;28;20107;-69
2024/01/17 07:28:14;;;;;;;16.30;10.38;;;-0.60;99.90;;;;;;5072973;28;20064;-68
2024/01/17 07:30:41;;;;;;;15.73;9.63;;;0.00;99.90;;;;;;5047289;28;20070;-69
2024/01/17 07:33:07;;;;;;;13.75;9.40;;;-0.50;99.90;;;;;;5066202;28;20040;-69
2024/01/17 07:35:33;;;;;;;16.52;9.90;;;-0.60;99.90;;;;;;5040709;28;20145;-69
2024/01/17 07:37:59;;;;;;;13.23;9.35;;;-0.70;99.90;;;;;;5038214;28;20483;-69
2024/01/17 07:40:25;;;;;;;15.50;10.23;;;-0.70;99.90;;;;;;5043456;28;20531;-69
2024/01/17 07:42:51;;;;;;;18.48;10.35;;;-0.70;99.90;;;;;;5037397;28;20084;-68
2024/01/17 07:45:17;;;;;;;18.30;9.50;;;-0.70;99.90;;;;;;5045309;28;20045;-69
2024/01/17 07:47:43;;;;;;;14.95;9.80;;;-0.70;99.90;;;;;;5066899;28;20498;-69
2024/01/17 07:50:09;;;;;;;15.13;9.73;;;-0.70;99.90;;;;;;5065669;28;20033;-70
2024/01/17 07:52:35;;;;;;;17.80;10.07;;;-0.70;99.90;;;;;;5069460;28;20219;-69
2024/01/17 07:55:02;;;;;;;14.20;9.95;;;-0.70;99.90;;;;;;5051138;28;20156;-71
2024/01/17 07:57:27;;;;;;;14.07;10.18;;;-0.30;99.90;;;;;;5065705;28;20052;-71
2024/01/17 07:59:53;;;;;;;14.70;10.48;;;-0.70;99.90;;;;;;5046025;28;20045;-70
2024/01/17 08:02:19;;;;;;;13.50;10.52;;;-0.70;99.90;;;;;;5085220;28;20164;-71
2024/01/17 08:04:45;;;;;;;16.42;10.20;;;-0.80;99.90;;;;;;5047544;28;20386;-70
2024/01/17 08:07:11;;;;;;;14.43;10.25;;;-0.80;99.90;;;;;;5015208;28;20122;-70
2024/01/17 08:09:36;;;;;;;14.45;9.82;;;-0.80;99.90;;;;;;5036043;28;20049;-72
2024/01/17 08:12:03;;;;;;;19.52;11.00;;;-0.80;99.90;;;;;;5038296;28;20528;-70
2024/01/17 08:14:29;;;;;;;17.38;11.43;;;-0.80;99.90;;;;;;5033139;28;20070;-72
2024/01/17 08:16:55;;;;;;;14.60;9.60;;;-0.80;99.90;;;;;;5041475;28;20086;-71
2024/01/17 08:19:21;;;;;;;14.60;10.90;;;-0.80;99.90;;;;;;5047457;28;20056;-69
2024/01/17 08:21:48;;;;;;;16.02;10.13;;;-0.80;99.90;;;;;;5053886;28;20046;-70
2024/01/17 08:24:14;;;;;;;16.05;10.57;;;-0.80;99.90;;;;;;5079709;28;20044;-69
2024/01/17 08:26:40;;;;;;;15.95;10.63;;;-0.80;99.90;;;;;;5068211;28;20073;-70
2024/01/17 08:29:06;;;;;;;15.13;10.32;;;-0.90;99.90;;;;;;5046670;28;20095;-70
2024/01/17 08:31:32;;;;;;;14.23;10.27;;;-0.80;99.90;;;;;;5056341;28;20037;-69
2024/01/17 08:33:58;;;;;;;15.52;9.48;;;-0.80;99.90;;;;;;5079910;28;20128;-70
2024/01/17 08:36:28;;;;;;;15.13;10.15;;;-0.80;99.90;;;;;;5050331;28;20123;-68
2024/01/17 08:38:54;;;;;;;15.93;10.32;;;-0.60;99.90;;;;;;5045354;28;20049;-69
2024/01/17 08:41:20;;;;;;;17.30;10.98;;;-0.80;99.90;;;;;;5056974;28;20126;-69
2024/01/17 08:43:45;;;;;;;13.75;10.07;;;-0.20;99.90;;;;;;5052378;28;20056;-69
2024/01/17 08:46:11;;;;;;;15.45;10.10;;;-0.70;99.90;;;;;;5032471;28;20115;-68
2024/01/17 08:48:38;;;;;;;15.00;9.40;;;-0.70;99.90;;;;;;5070197;28;20094;-68
2024/01/17 08:51:05;;;;;;;15.57;10.90;;;-0.70;99.90;;;;;;5048259;28;20040;-71
2024/01/17 08:53:31;;;;;;;13.90;9.25;;;-0.70;99.90;;;;;;5054741;28;20033;-68
2024/01/17 08:55:58;;;;;;;13.52;10.00;;;-0.60;99.90;;;;;;5044724;28;20044;-68
2024/01/17 08:58:24;;;;;;;14.65;9.02;;;-0.70;99.90;;;;;;5047554;28;20048;-69
2024/01/17 09:00:50;;;;;;;14.38;9.70;;;-0.70;99.90;;;;;;5038829;28;20045;-74
2024/01/17 09:03:16;;;;;;;13.75;9.05;;;-0.70;99.90;;;;;;5021959;28;20173;-71
2024/01/17 09:05:42;;;;;;;16.45;9.23;;;-0.60;99.90;;;;;;5047476;28;20046;-77
2024/01/17 09:08:07;;;;;;;13.32;9.38;;;-0.50;99.90;;;;;;5045298;28;20135;-70
2024/01/17 09:10:34;;;;;;;14.00;8.48;;;-0.40;99.90;;;;;;5045499;28;20037;-70
2024/01/17 09:13:00;;;;;;;13.65;8.38;;;-0.20;99.90;;;;;;5066433;28;20072;-70
2024/01/17 09:15:25;;;;;;;12.15;8.85;;;-0.30;99.90;;;;;;5026391;28;20037;-70
2024/01/17 09:17:51;;;;;;;14.73;9.23;;;-0.40;99.90;;;;;;5087327;28;20091;-79
2024/01/17 09:20:17;;;;;;;13.43;9.00;;;-0.40;99.90;;;;;;5037882;28;20494;-70
2024/01/17 09:22:43;;;;;;;13.18;8.98;;;-0.40;99.90;;;;;;5031946;28;20049;-70
2024/01/17 09:25:09;;;;;;;15.27;8.80;;;-0.30;99.90;;;;;;5036539;28;20044;-70
2024/01/17 09:27:36;;;;;;;12.80;8.80;;;-0.40;99.90;;;;;;5047429;28;20037;-71
2024/01/17 09:30:02;;;;;;;14.90;9.57;;;-0.40;99.90;;;;;;5044601;28;20036;-74
2024/01/17 09:32:28;;;;;;;13.20;8.75;;;-0.30;99.90;;;;;;5042057;28;20064;-69
2024/01/17 09:34:54;;;;;;;13.48;9.15;;;-0.30;99.90;;;;;;5050327;28;20131;-76
2024/01/17 09:37:20;;;;;;;10.35;8.07;;;0.00;99.90;;;;;;5045424;28;20063;-70
2024/01/17 09:39:45;;;;;;;12.50;8.65;;;-0.30;99.90;;;;;;5059297;28;20033;-69
2024/01/17 09:42:16;;;;;;;13.18;8.65;;;-0.30;99.90;;;;;;5050112;28;20084;-69
2024/01/17 09:44:43;;;;;;;12.75;8.55;;;-0.30;99.90;;;;;;5039269;28;20062;-70
2024/01/17 09:47:12;;;;;;;13.82;8.20;;;-0.30;99.90;;;;;;5057357;28;20493;-74
2024/01/17 09:49:39;;;;;;;13.35;8.48;;;-0.30;99.90;;;;;;5039510;28;20049;-73
2024/01/17 09:52:06;;;;;;;17.67;9.25;;;-0.20;99.90;;;;;;5042209;28;20048;-73
2024/01/17 09:54:36;;;;;;;13.80;8.30;;;-0.20;99.90;;;;;;5029654;28;20393;-72
2024/01/17 09:57:09;;;;;;;13.38;8.18;;;-0.20;99.90;;;;;;5045969;28;20072;-73
2024/01/17 09:59:45;;;;;;;11.30;8.40;;;-0.20;99.90;;;;;;5048190;28;20120;-72
2024/01/17 10:02:12;;;;;;;12.55;8.52;;;-0.20;99.90;;;;;;5042369;28;20041;-73
2024/01/17 10:04:41;;;;;;;15.90;8.60;;;-0.10;99.90;;;;;;5029670;28;20125;-75
2024/01/17 10:07:07;;;;;;;15.02;7.93;;;-0.10;99.90;;;;;;5042066;28;20099;-76
2024/01/17 10:09:33;;;;;;;11.50;8.20;;;-0.10;99.90;;;;;;5035278;28;20049;-76
2024/01/17 10:11:59;;;;;;;13.85;8.70;;;-0.10;99.90;;;;;;5045202;28;20049;-76
2024/01/17 10:14:25;;;;;;;15.40;8.60;;;-0.10;99.90;;;;;;5046872;28;20347;-75
2024/01/17 10:16:51;;;;;;;13.43;7.97;;;0.00;99.90;;;;;;5037085;28;20128;-72
2024/01/17 10:19:18;;;;;;;14.82;8.20;;;0.40;99.90;;;;;;5036495;28;20046;-73
2024/01/17 10:21:43;;;;;;;13.70;7.78;;;0.00;99.90;;;;;;5030097;28;20123;-74
2024/01/17 10:24:11;;;;;;;11.90;8.43;;;0.10;99.90;;;;;;5037147;28;20104;-72
2024/01/17 10:26:44;;;;;;;15.65;8.88;;;0.00;99.90;;;;;;5033140;28;20064;-72
2024/01/17 10:29:11;;;;;;;14.30;8.48;;;0.00;99.90;;;;;;5068890;28;20049;-73
2024/01/17 10:31:41;;;;;;;13.32;8.77;;;0.00;99.90;;;;;;5065134;28;20049;-72
2024/01/17 10:34:10;;;;;;;13.40;8.70;;;0.00;99.90;;;;;;5075789;28;20049;-72
2024/01/17 10:36:41;;;;;;;10.48;8.05;;;0.00;99.90;;;;;;5040292;28;20526;-73
2024/01/17 10:39:07;;;;;;;14.38;8.52;;;0.10;99.90;;;;;;5049643;28;20040;-75
2024/01/17 10:41:33;;;;;;;14.80;8.48;;;0.00;99.90;;;;;;5049096;28;20049;-72
2024/01/17 10:44:04;;;;;;;12.32;8.30;;;0.30;99.90;;;;;;5023300;28;20040;-74
2024/01/17 10:46:30;;;;;;;16.08;9.05;;;0.10;99.90;;;;;;5072209;28;20038;-75
2024/01/17 10:48:58;;;;;;;14.40;8.57;;;0.10;99.90;;;;;;5052621;28;20041;-75
2024/01/17 10:51:24;;;;;;;14.18;7.70;;;0.20;99.90;;;;;;5044372;28;21055;-67
2024/01/17 10:53:53;;;;;;;16.00;8.52;;;0.10;99.90;;;;;;5041585;28;20049;-72
2024/01/17 10:56:20;;;;;;;14.15;8.27;;;0.20;99.90;;;;;;5049549;28;20089;-72
2024/01/17 10:58:52;;;;;;;14.32;8.07;;;0.90;99.90;;;;;;5065757;28;20057;-69
2024/01/17 11:01:24;;;;;;;15.82;8.15;;;0.30;99.90;;;;;;5036132;28;20371;-69
2024/01/17 11:03:53;;;;;;;14.07;7.47;;;0.30;99.90;;;;;;5033713;28;20067;-70
2024/01/17 11:06:20;;;;;;;12.07;8.30;;;0.30;99.90;;;;;;5040483;28;20066;-69
2024/01/17 11:08:47;;;;;;;12.48;7.60;;;0.30;99.90;;;;;;5034751;28;20355;-71
2024/01/17 11:11:14;;;;;;;11.52;7.68;;;0.30;99.90;;;;;;5037533;28;20160;-69
2024/01/17 11:13:42;;;;;;;10.38;7.82;;;0.30;99.90;;;;;;5056771;28;20056;-69
2024/01/17 11:16:11;;;;;;;17.75;8.70;;;0.30;99.90;;;;;;5069256;28;20064;-70
2024/01/17 11:18:40;;;;;;;11.07;7.53;;;0.30;99.90;;;;;;5050873;28;20470;-71
2024/01/17 11:21:07;;;;;;;12.82;7.75;;;0.30;99.90;;;;;;5041378;28;20037;-70
2024/01/17 11:23:45;;;;;;;11.52;8.00;;;0.30;99.90;;;;;;5051247;28;20047;-70
2024/01/17 11:26:34;;;;;;;8.82;7.45;;;0.30;99.90;;;;;;5051290;28;20043;-72
2024/01/17 11:29:48;;;;;;;17.23;8.00;;;0.30;99.90;;;;;;5084312;28;20133;-70
2024/01/17 11:32:36;;;;;;;14.98;8.25;;;0.30;99.90;;;;;;4957802;28;20483;-73
2024/01/17 11:35:02;;;;;;;13.50;7.97;;;1.20;99.90;;;;;;4987135;28;20046;-70
2024/01/17 11:37:33;;;;;;;13.02;7.45;;;0.40;99.90;;;;;;5019693;28;20485;-70
2024/01/17 11:40:04;;;;;;;11.93;7.60;;;0.30;99.90;;;;;;5051418;28;20059;-70
2024/01/17 11:42:31;;;;;;;16.80;7.88;;;0.30;99.90;;;;;;5044387;28;20083;-71
2024/01/17 11:44:56;;;;;;;12.40;8.20;;;0.30;99.90;;;;;;5074512;28;20154;-71
2024/01/17 11:47:22;;;;;;;10.60;7.85;;;0.40;99.90;;;;;;5043246;28;20500;-69
2024/01/17 11:49:49;;;;;;;11.90;8.43;;;0.50;99.90;;;;;;5041956;28;20716;-70
2024/01/17 11:52:33;;;;;;;14.55;8.10;;;0.70;99.90;;;;;;5034386;28;20045;-72
2024/01/17 11:55:00;;;;;;;14.60;8.13;;;0.30;99.90;;;;;;5055097;28;20091;-69
2024/01/17 11:57:29;;;;;;;11.95;8.95;;;0.30;99.90;;;;;;5040146;28;20355;-69
2024/01/17 12:00:12;;;;;;;11.50;8.23;;;0.40;99.90;;;;;;5035037;28;20116;-69
2024/01/17 12:02:44;;;;;;;14.45;8.88;;;0.30;99.90;;;;;;5063481;28;20370;-69
2024/01/17 12:05:11;;;;;;;13.80;8.18;;;0.50;99.90;;;;;;5036021;28;20048;-69
2024/01/17 12:07:49;;;;;;;12.27;8.27;;;0.30;99.90;;;;;;5047275;28;20869;-71
2024/01/17 12:10:14;;;;;;;12.05;7.97;;;0.30;99.90;;;;;;5039823;28;20059;-70
2024/01/17 12:12:44;;;;;;;13.95;8.68;;;0.20;99.90;;;;;;5033604;28;20076;-71
2024/01/17 12:15:11;;;;;;;11.07;7.85;;;0.30;99.90;;;;;;5064425;28;20127;-70
2024/01/17 12:17:40;;;;;;;13.05;8.32;;;0.20;99.90;;;;;;5037915;28;20424;-71
2024/01/17 12:20:11;;;;;;;15.38;9.32;;;0.30;99.90;;;;;;5037217;28;20094;-70
2024/01/17 12:22:37;;;;;;;14.20;8.48;;;0.30;99.90;;;;;;5034724;28;20363;-71
2024/01/17 12:25:03;;;;;;;13.90;8.85;;;0.30;99.90;;;;;;5032554;28;20044;-70
2024/01/17 12:27:30;;;;;;;15.02;8.35;;;0.40;99.90;;;;;;5067819;28;20077;-71
2024/01/17 12:30:01;;;;;;;13.40;8.75;;;0.40;99.90;;;;;;5021215;28;20040;-71
2024/01/17 12:32:27;;;;;;;13.50;8.95;;;0.50;99.90;;;;;;5039016;28;20057;-71
2024/01/17 12:34:53;;;;;;;21.30;9.05;;;0.40;99.90;;;;;;5032859;28;20112;-70
2024/01/17 12:37:19;;;;;;;13.13;8.70;;;0.50;99.90;;;;;;5015773;28;20195;-70
2024/01/17 12:39:45;;;;;;;11.82;7.53;;;0.50;99.90;;;;;;5049495;28;20053;-71
2024/01/17 12:42:10;;;;;;;11.48;7.68;;;0.50;99.90;;;;;;5051154;28;20514;-71